AUA403 LOWW-LEBL
Flight info
| Callsign | AUA403 |
|---|---|
| Flight time | 2h 15m |
| Altitude | 36000 |
| Route | OSPEN DCT ABRUK DCT SETAL DCT DETSA DCT GEKBA DCT VAMTU DCT KOLON DCT GANGU DCT PADKO DCT DIVKO DCT NILDU N975 BISBA |
| Aircraft | A320/M-SDE3FGHIRWY/LB1 |
Departure
| Time | 2026-05-07 13:47 |
|---|---|
| Airport | Vienna International Airport (LOWW) |
Arrival
| Time | 2026-05-07 16:02 |
|---|---|
| Airport | Josep Tarradellas Barcelona-El Prat Airport (LEBL) |
| Time | Latitude | Longitude | Altitude | Speed | Heading |
|---|---|---|---|---|---|
| 2026-05-07 13:18 | 48.11842 | 16.56929 | 618 ft | 0 kts | 206° |
| 2026-05-07 13:38 | 48.11844 | 16.56931 | 609 ft | 2 kts | 206° |
| 2026-05-07 13:38 | 48.11868 | 16.56948 | 625 ft | 3 kts | 206° |
| 2026-05-07 13:39 | 48.11887 | 16.56961 | 615 ft | 4 kts | 189° |
| 2026-05-07 13:39 | 48.11911 | 16.56957 | 615 ft | 4 kts | 140° |
| 2026-05-07 13:39 | 48.11925 | 16.56928 | 617 ft | 3 kts | 116° |
| 2026-05-07 13:39 | 48.11927 | 16.56923 | 617 ft | 0 kts | 116° |
| 2026-05-07 13:42 | 48.11923 | 16.56934 | 617 ft | 5 kts | 116° |
| 2026-05-07 13:42 | 48.11908 | 16.56979 | 620 ft | 4 kts | 116° |
| 2026-05-07 13:43 | 48.11897 | 16.57015 | 613 ft | 5 kts | 116° |
| 2026-05-07 13:43 | 48.11874 | 16.57084 | 615 ft | 7 kts | 116° |
| 2026-05-07 13:43 | 48.11857 | 16.57146 | 613 ft | 6 kts | 94° |
| 2026-05-07 13:43 | 48.11843 | 16.57250 | 616 ft | 11 kts | 117° |
| 2026-05-07 13:44 | 48.11806 | 16.57343 | 617 ft | 10 kts | 136° |
| 2026-05-07 13:44 | 48.11740 | 16.57374 | 617 ft | 13 kts | 165° |
| 2026-05-07 13:44 | 48.11642 | 16.57415 | 619 ft | 15 kts | 164° |
| 2026-05-07 13:44 | 48.11539 | 16.57459 | 612 ft | 15 kts | 165° |
| 2026-05-07 13:45 | 48.11438 | 16.57421 | 621 ft | 16 kts | 205° |
| 2026-05-07 13:45 | 48.11336 | 16.57348 | 617 ft | 14 kts | 206° |
| 2026-05-07 13:45 | 48.11246 | 16.57282 | 609 ft | 15 kts | 206° |
| 2026-05-07 13:45 | 48.11154 | 16.57216 | 612 ft | 13 kts | 206° |
| 2026-05-07 13:46 | 48.11071 | 16.57145 | 614 ft | 14 kts | 228° |
| 2026-05-07 13:46 | 48.11072 | 16.57051 | 621 ft | 9 kts | 295° |
| 2026-05-07 13:46 | 48.11101 | 16.56961 | 616 ft | 17 kts | 295° |
| 2026-05-07 13:46 | 48.11249 | 16.56504 | 613 ft | 84 kts | 296° |
| 2026-05-07 13:47 | 48.11598 | 16.55434 | 612 ft | 142 kts | 295° |
| 2026-05-07 13:47 | 48.12104 | 16.53899 | 687 ft | 180 kts | 295° |
| 2026-05-07 13:47 | 48.12544 | 16.52112 | 1217 ft | 188 kts | 274° |
| 2026-05-07 13:47 | 48.12301 | 16.50196 | 1821 ft | 191 kts | 238° |
| 2026-05-07 13:48 | 48.11365 | 16.48831 | 2451 ft | 191 kts | 206° |
| 2026-05-07 13:48 | 48.10117 | 16.48106 | 3074 ft | 192 kts | 198° |
| 2026-05-07 13:48 | 48.08864 | 16.47444 | 3795 ft | 191 kts | 200° |
| 2026-05-07 13:48 | 48.07699 | 16.46430 | 4304 ft | 199 kts | 219° |
| 2026-05-07 13:49 | 48.06655 | 16.45039 | 4897 ft | 203 kts | 220° |
| 2026-05-07 13:49 | 48.05572 | 16.43614 | 5453 ft | 209 kts | 221° |
| 2026-05-07 13:49 | 48.04439 | 16.42098 | 5740 ft | 229 kts | 221° |
| 2026-05-07 13:49 | 48.03144 | 16.40518 | 6057 ft | 252 kts | 217° |
| 2026-05-07 13:50 | 48.01703 | 16.38874 | 6608 ft | 265 kts | 218° |
| 2026-05-07 13:50 | 48.00237 | 16.37174 | 7452 ft | 269 kts | 218° |
| 2026-05-07 13:50 | 47.98768 | 16.35414 | 8283 ft | 273 kts | 219° |
| 2026-05-07 13:50 | 47.97304 | 16.33590 | 9133 ft | 276 kts | 223° |
| 2026-05-07 13:51 | 47.96053 | 16.31391 | 9974 ft | 280 kts | 238° |
| 2026-05-07 13:51 | 47.95185 | 16.28738 | 10476 ft | 296 kts | 249° |
| 2026-05-07 13:51 | 47.94456 | 16.25743 | 10696 ft | 318 kts | 250° |
| 2026-05-07 13:51 | 47.93693 | 16.22579 | 11237 ft | 328 kts | 250° |
| 2026-05-07 13:52 | 47.92916 | 16.19364 | 11960 ft | 331 kts | 249° |
| 2026-05-07 13:52 | 47.92125 | 16.16122 | 12716 ft | 334 kts | 249° |
| 2026-05-07 13:52 | 47.91326 | 16.12863 | 13472 ft | 336 kts | 249° |
| 2026-05-07 13:52 | 47.90518 | 16.09578 | 14166 ft | 338 kts | 249° |
| 2026-05-07 13:53 | 47.89703 | 16.06280 | 14838 ft | 340 kts | 248° |
| 2026-05-07 13:53 | 47.88884 | 16.02973 | 15496 ft | 342 kts | 248° |
| 2026-05-07 13:53 | 47.88014 | 15.99670 | 16176 ft | 342 kts | 242° |
| 2026-05-07 13:53 | 47.86792 | 15.96643 | 16881 ft | 342 kts | 231° |
| 2026-05-07 13:54 | 47.85194 | 15.94015 | 17570 ft | 343 kts | 221° |
| 2026-05-07 13:54 | 47.83325 | 15.91811 | 18212 ft | 344 kts | 217° |
| 2026-05-07 13:54 | 47.81416 | 15.89660 | 18822 ft | 345 kts | 217° |
| 2026-05-07 13:54 | 47.79502 | 15.87503 | 19427 ft | 346 kts | 217° |
| 2026-05-07 13:55 | 47.77604 | 15.85363 | 19978 ft | 349 kts | 217° |
| 2026-05-07 13:55 | 47.75659 | 15.83168 | 20529 ft | 352 kts | 217° |
| 2026-05-07 13:55 | 47.73702 | 15.80959 | 21159 ft | 354 kts | 217° |
| 2026-05-07 13:55 | 47.71735 | 15.78741 | 21723 ft | 355 kts | 217° |
| 2026-05-07 13:56 | 47.69794 | 15.76554 | 22268 ft | 358 kts | 217° |
| 2026-05-07 13:56 | 47.67805 | 15.74317 | 22856 ft | 360 kts | 217° |
| 2026-05-07 13:56 | 47.65802 | 15.72068 | 23434 ft | 362 kts | 216° |
| 2026-05-07 13:56 | 47.63788 | 15.69809 | 23896 ft | 364 kts | 216° |
| 2026-05-07 13:57 | 47.61758 | 15.67532 | 24285 ft | 369 kts | 216° |
| 2026-05-07 13:57 | 47.59706 | 15.65232 | 24656 ft | 371 kts | 216° |
| 2026-05-07 13:57 | 47.57640 | 15.62920 | 25079 ft | 373 kts | 217° |
| 2026-05-07 13:57 | 47.55573 | 15.60609 | 25539 ft | 373 kts | 217° |
| 2026-05-07 13:58 | 47.53496 | 15.58291 | 25935 ft | 374 kts | 217° |
| 2026-05-07 13:58 | 47.51435 | 15.55919 | 26315 ft | 376 kts | 221° |
| 2026-05-07 13:58 | 47.49635 | 15.53104 | 26639 ft | 379 kts | 230° |
| 2026-05-07 13:58 | 47.48220 | 15.49795 | 27030 ft | 384 kts | 240° |
| 2026-05-07 13:59 | 47.47241 | 15.46095 | 27414 ft | 390 kts | 249° |
| 2026-05-07 13:59 | 47.46498 | 15.42218 | 27759 ft | 392 kts | 249° |
| 2026-05-07 13:59 | 47.45745 | 15.38330 | 28121 ft | 394 kts | 249° |
| 2026-05-07 13:59 | 47.44984 | 15.34441 | 28434 ft | 395 kts | 249° |
| 2026-05-07 14:00 | 47.44214 | 15.30530 | 28727 ft | 397 kts | 249° |
| 2026-05-07 14:00 | 47.43441 | 15.26604 | 29052 ft | 399 kts | 249° |
| 2026-05-07 14:00 | 47.42663 | 15.22665 | 29379 ft | 400 kts | 249° |
| 2026-05-07 14:00 | 47.41882 | 15.18713 | 29675 ft | 401 kts | 249° |
| 2026-05-07 14:01 | 47.41100 | 15.14763 | 30027 ft | 401 kts | 249° |
| 2026-05-07 14:01 | 47.40315 | 15.10806 | 30329 ft | 402 kts | 249° |
| 2026-05-07 14:01 | 47.39526 | 15.06830 | 30557 ft | 404 kts | 249° |
| 2026-05-07 14:01 | 47.38737 | 15.02848 | 30755 ft | 406 kts | 249° |
| 2026-05-07 14:02 | 47.37944 | 14.98845 | 30992 ft | 406 kts | 249° |
| 2026-05-07 14:02 | 47.37156 | 14.94852 | 31286 ft | 405 kts | 250° |
| 2026-05-07 14:02 | 47.36367 | 14.90864 | 31553 ft | 405 kts | 249° |
| 2026-05-07 14:02 | 47.35573 | 14.86878 | 31786 ft | 405 kts | 249° |
| 2026-05-07 14:03 | 47.34773 | 14.82888 | 32053 ft | 405 kts | 249° |
| 2026-05-07 14:03 | 47.33974 | 14.78910 | 32381 ft | 405 kts | 249° |
| 2026-05-07 14:03 | 47.33185 | 14.74985 | 32706 ft | 404 kts | 250° |
| 2026-05-07 14:03 | 47.32384 | 14.71017 | 33013 ft | 404 kts | 250° |
| 2026-05-07 14:04 | 47.31582 | 14.67046 | 33310 ft | 404 kts | 249° |
| 2026-05-07 14:04 | 47.30779 | 14.63084 | 33611 ft | 404 kts | 250° |
| 2026-05-07 14:04 | 47.29972 | 14.59110 | 33857 ft | 406 kts | 250° |
| 2026-05-07 14:04 | 47.29164 | 14.55135 | 34089 ft | 405 kts | 250° |
| 2026-05-07 14:05 | 47.28355 | 14.51168 | 34335 ft | 405 kts | 250° |
| 2026-05-07 14:05 | 47.27544 | 14.47191 | 34559 ft | 405 kts | 250° |
| 2026-05-07 14:05 | 47.26732 | 14.43220 | 34778 ft | 405 kts | 250° |
| 2026-05-07 14:05 | 47.25915 | 14.39243 | 34985 ft | 406 kts | 250° |
| 2026-05-07 14:06 | 47.25096 | 14.35257 | 35188 ft | 406 kts | 250° |
| 2026-05-07 14:06 | 47.24275 | 14.31270 | 35366 ft | 407 kts | 251° |
| 2026-05-07 14:06 | 47.23453 | 14.27282 | 35557 ft | 408 kts | 250° |
| 2026-05-07 14:06 | 47.22629 | 14.23290 | 35734 ft | 408 kts | 251° |
| 2026-05-07 14:07 | 47.21802 | 14.19291 | 35909 ft | 409 kts | 251° |
| 2026-05-07 14:07 | 47.20136 | 14.11272 | 35964 ft | 411 kts | 251° |
| 2026-05-07 14:08 | 47.18465 | 14.03235 | 35959 ft | 411 kts | 251° |
| 2026-05-07 14:08 | 47.16781 | 13.95202 | 35968 ft | 411 kts | 251° |
| 2026-05-07 14:09 | 47.15085 | 13.87174 | 35965 ft | 411 kts | 251° |
| 2026-05-07 14:09 | 47.13391 | 13.79161 | 35968 ft | 411 kts | 251° |
| 2026-05-07 14:10 | 47.11690 | 13.71143 | 35971 ft | 411 kts | 251° |
| 2026-05-07 14:10 | 47.09989 | 13.63125 | 35968 ft | 412 kts | 251° |
| 2026-05-07 14:11 | 47.08279 | 13.55109 | 35983 ft | 412 kts | 251° |
| 2026-05-07 14:11 | 47.06567 | 13.47098 | 35975 ft | 412 kts | 251° |
| 2026-05-07 14:12 | 47.04852 | 13.39139 | 35986 ft | 412 kts | 251° |
| 2026-05-07 14:12 | 47.03118 | 13.31131 | 35983 ft | 412 kts | 251° |
| 2026-05-07 14:13 | 47.01382 | 13.23141 | 35982 ft | 411 kts | 251° |
| 2026-05-07 14:13 | 46.99648 | 13.15156 | 35988 ft | 411 kts | 251° |
| 2026-05-07 14:14 | 46.97905 | 13.07185 | 35985 ft | 411 kts | 251° |
| 2026-05-07 14:14 | 46.96152 | 12.99217 | 35989 ft | 411 kts | 251° |
| 2026-05-07 14:15 | 46.94397 | 12.91246 | 35992 ft | 411 kts | 251° |
| 2026-05-07 14:15 | 46.92637 | 12.83297 | 35992 ft | 411 kts | 251° |
| 2026-05-07 14:16 | 46.90869 | 12.75337 | 36002 ft | 411 kts | 251° |
| 2026-05-07 14:16 | 46.89097 | 12.67367 | 35999 ft | 412 kts | 251° |
| 2026-05-07 14:17 | 46.87319 | 12.59411 | 36009 ft | 411 kts | 251° |
| 2026-05-07 14:17 | 46.85537 | 12.51484 | 36013 ft | 410 kts | 251° |
| 2026-05-07 14:18 | 46.83760 | 12.43597 | 36031 ft | 411 kts | 251° |
| 2026-05-07 14:18 | 46.81966 | 12.35678 | 36049 ft | 410 kts | 251° |
| 2026-05-07 14:19 | 46.79931 | 12.27915 | 36066 ft | 411 kts | 241° |
| 2026-05-07 14:19 | 46.76609 | 12.21092 | 36057 ft | 414 kts | 234° |
| 2026-05-07 14:20 | 46.73599 | 12.15322 | 35951 ft | 414 kts | 234° |
| 2026-05-07 14:20 | 46.70712 | 12.09784 | 35966 ft | 412 kts | 234° |
| 2026-05-07 14:21 | 46.67246 | 12.03149 | 35968 ft | 411 kts | 234° |
| 2026-05-07 14:21 | 46.63784 | 11.96522 | 35966 ft | 411 kts | 234° |
| 2026-05-07 14:22 | 46.59726 | 11.88795 | 35963 ft | 411 kts | 234° |
| 2026-05-07 14:22 | 46.56831 | 11.83297 | 35965 ft | 412 kts | 234° |
| 2026-05-07 14:23 | 46.53357 | 11.76706 | 35960 ft | 410 kts | 234° |
| 2026-05-07 14:23 | 46.49884 | 11.70135 | 35958 ft | 410 kts | 234° |
| 2026-05-07 14:24 | 46.46401 | 11.63574 | 35956 ft | 410 kts | 234° |
| 2026-05-07 14:24 | 46.42914 | 11.57012 | 35952 ft | 410 kts | 234° |
| 2026-05-07 14:25 | 46.39427 | 11.50468 | 35973 ft | 410 kts | 234° |
| 2026-05-07 14:25 | 46.35969 | 11.43990 | 35968 ft | 408 kts | 234° |
| 2026-05-07 14:26 | 46.32500 | 11.37495 | 35968 ft | 407 kts | 234° |
| 2026-05-07 14:26 | 46.29031 | 11.31024 | 35969 ft | 407 kts | 234° |
| 2026-05-07 14:27 | 46.25550 | 11.24564 | 36069 ft | 407 kts | 234° |
| 2026-05-07 14:27 | 46.22065 | 11.18084 | 36051 ft | 409 kts | 234° |
| 2026-05-07 14:28 | 46.18565 | 11.11592 | 36042 ft | 410 kts | 234° |
| 2026-05-07 14:28 | 46.15059 | 11.05119 | 36030 ft | 410 kts | 234° |
| 2026-05-07 14:29 | 46.11541 | 10.98642 | 36019 ft | 410 kts | 234° |
| 2026-05-07 14:29 | 46.08023 | 10.92168 | 36003 ft | 410 kts | 234° |
| 2026-05-07 14:30 | 46.04506 | 10.85714 | 35966 ft | 409 kts | 234° |
| 2026-05-07 14:30 | 46.00999 | 10.79301 | 35978 ft | 407 kts | 234° |
| 2026-05-07 14:31 | 45.97499 | 10.72897 | 35979 ft | 407 kts | 234° |
| 2026-05-07 14:31 | 45.93981 | 10.66488 | 35972 ft | 409 kts | 234° |
| 2026-05-07 14:32 | 45.90480 | 10.60124 | 35970 ft | 409 kts | 234° |
| 2026-05-07 14:32 | 45.86949 | 10.53724 | 35961 ft | 408 kts | 234° |
| 2026-05-07 14:33 | 45.83436 | 10.47374 | 35974 ft | 405 kts | 234° |
| 2026-05-07 14:33 | 45.79932 | 10.41029 | 35966 ft | 406 kts | 234° |
| 2026-05-07 14:34 | 45.76427 | 10.34702 | 35961 ft | 405 kts | 234° |
| 2026-05-07 14:34 | 45.72917 | 10.28396 | 35971 ft | 405 kts | 234° |
| 2026-05-07 14:35 | 45.69407 | 10.22107 | 35963 ft | 404 kts | 234° |
| 2026-05-07 14:35 | 45.65899 | 10.15836 | 35958 ft | 404 kts | 234° |
| 2026-05-07 14:36 | 45.62393 | 10.09569 | 35959 ft | 403 kts | 234° |
| 2026-05-07 14:36 | 45.58879 | 10.03315 | 35958 ft | 403 kts | 234° |
| 2026-05-07 14:37 | 45.55367 | 9.97073 | 35968 ft | 403 kts | 234° |
| 2026-05-07 14:37 | 45.50105 | 9.87729 | 35969 ft | 402 kts | 234° |
| 2026-05-07 14:38 | 45.46603 | 9.81544 | 35970 ft | 401 kts | 234° |
| 2026-05-07 14:38 | 45.43091 | 9.75362 | 36014 ft | 401 kts | 234° |
| 2026-05-07 14:39 | 45.39596 | 9.69224 | 36017 ft | 402 kts | 234° |
| 2026-05-07 14:39 | 45.36074 | 9.63039 | 36003 ft | 402 kts | 234° |
| 2026-05-07 14:40 | 45.32557 | 9.56872 | 36009 ft | 401 kts | 234° |
| 2026-05-07 14:40 | 45.29040 | 9.50725 | 35999 ft | 401 kts | 234° |
| 2026-05-07 14:41 | 45.25517 | 9.44571 | 35985 ft | 401 kts | 234° |
| 2026-05-07 14:41 | 45.21994 | 9.38423 | 35971 ft | 401 kts | 234° |
| 2026-05-07 14:42 | 45.18457 | 9.32288 | 35959 ft | 400 kts | 233° |
| 2026-05-07 14:42 | 45.14956 | 9.26211 | 35970 ft | 400 kts | 233° |
| 2026-05-07 14:43 | 45.11436 | 9.20106 | 35969 ft | 401 kts | 233° |
| 2026-05-07 14:43 | 45.07885 | 9.13994 | 35969 ft | 401 kts | 233° |
| 2026-05-07 14:44 | 45.04340 | 9.07912 | 35969 ft | 401 kts | 233° |
| 2026-05-07 14:44 | 45.00801 | 9.01823 | 35976 ft | 400 kts | 233° |
| 2026-05-07 14:45 | 44.97263 | 8.95743 | 35975 ft | 400 kts | 233° |
| 2026-05-07 14:45 | 44.93730 | 8.89682 | 35980 ft | 400 kts | 233° |
| 2026-05-07 14:46 | 44.90188 | 8.83623 | 35978 ft | 400 kts | 233° |
| 2026-05-07 14:46 | 44.86640 | 8.77577 | 35995 ft | 400 kts | 233° |
| 2026-05-07 14:47 | 44.83085 | 8.71540 | 35984 ft | 400 kts | 232° |
| 2026-05-07 14:47 | 44.79526 | 8.65510 | 35987 ft | 400 kts | 232° |
| 2026-05-07 14:48 | 44.75976 | 8.59490 | 35985 ft | 400 kts | 232° |
| 2026-05-07 14:48 | 44.72415 | 8.53472 | 35985 ft | 400 kts | 232° |
| 2026-05-07 14:49 | 44.68850 | 8.47463 | 35984 ft | 400 kts | 232° |
| 2026-05-07 14:49 | 44.65305 | 8.41514 | 35986 ft | 399 kts | 232° |
| 2026-05-07 14:50 | 44.61738 | 8.35539 | 35988 ft | 399 kts | 232° |
| 2026-05-07 14:50 | 44.58181 | 8.29568 | 35982 ft | 399 kts | 232° |
| 2026-05-07 14:51 | 44.54621 | 8.23606 | 35987 ft | 398 kts | 232° |
| 2026-05-07 14:51 | 44.51056 | 8.17658 | 35983 ft | 398 kts | 232° |
| 2026-05-07 14:52 | 44.47487 | 8.11720 | 35985 ft | 399 kts | 232° |
| 2026-05-07 14:52 | 44.43913 | 8.05781 | 35984 ft | 399 kts | 232° |
| 2026-05-07 14:53 | 44.40357 | 7.99887 | 35986 ft | 398 kts | 232° |
| 2026-05-07 14:53 | 44.36778 | 7.93957 | 35984 ft | 399 kts | 232° |
| 2026-05-07 14:54 | 44.33191 | 7.88030 | 35978 ft | 399 kts | 231° |
| 2026-05-07 14:54 | 44.29594 | 7.82120 | 35991 ft | 399 kts | 231° |
| 2026-05-07 14:55 | 44.25837 | 7.76421 | 35995 ft | 401 kts | 224° |
| 2026-05-07 14:55 | 44.21657 | 7.71273 | 35993 ft | 401 kts | 224° |
| 2026-05-07 14:56 | 44.17471 | 7.66127 | 35999 ft | 401 kts | 224° |
| 2026-05-07 14:56 | 44.13452 | 7.60781 | 35990 ft | 398 kts | 231° |
| 2026-05-07 14:57 | 44.09836 | 7.54966 | 35999 ft | 398 kts | 231° |
| 2026-05-07 14:57 | 44.06200 | 7.49149 | 36005 ft | 398 kts | 231° |
| 2026-05-07 14:58 | 44.02566 | 7.43344 | 36005 ft | 398 kts | 231° |
| 2026-05-07 14:58 | 43.98918 | 7.37544 | 36006 ft | 398 kts | 230° |
| 2026-05-07 14:59 | 43.95277 | 7.31759 | 36000 ft | 397 kts | 231° |
| 2026-05-07 14:59 | 43.91655 | 7.25999 | 36011 ft | 396 kts | 231° |
| 2026-05-07 15:00 | 43.88020 | 7.20252 | 36007 ft | 396 kts | 230° |
| 2026-05-07 15:00 | 43.84391 | 7.14524 | 36004 ft | 396 kts | 230° |
| 2026-05-07 15:01 | 43.80760 | 7.08792 | 35989 ft | 395 kts | 230° |
| 2026-05-07 15:01 | 43.77129 | 7.03091 | 36002 ft | 394 kts | 230° |
| 2026-05-07 15:02 | 43.73533 | 6.97427 | 35999 ft | 394 kts | 233° |
| 2026-05-07 15:02 | 43.70878 | 6.90874 | 36002 ft | 392 kts | 248° |
| 2026-05-07 15:03 | 43.69182 | 6.85059 | 36001 ft | 392 kts | 247° |
| 2026-05-07 15:03 | 43.66778 | 6.76900 | 35994 ft | 392 kts | 247° |
| 2026-05-07 15:04 | 43.64710 | 6.69913 | 35991 ft | 392 kts | 247° |
| 2026-05-07 15:04 | 43.62645 | 6.62957 | 35984 ft | 390 kts | 247° |
| 2026-05-07 15:05 | 43.60587 | 6.56029 | 35987 ft | 389 kts | 247° |
| 2026-05-07 15:05 | 43.58533 | 6.49118 | 35961 ft | 389 kts | 247° |
| 2026-05-07 15:06 | 43.56819 | 6.43388 | 35958 ft | 389 kts | 246° |
| 2026-05-07 15:06 | 43.54414 | 6.35368 | 35954 ft | 390 kts | 246° |
| 2026-05-07 15:07 | 43.52673 | 6.29584 | 35953 ft | 390 kts | 246° |
| 2026-05-07 15:07 | 43.50593 | 6.22685 | 35952 ft | 390 kts | 246° |
| 2026-05-07 15:08 | 43.48516 | 6.15797 | 35954 ft | 389 kts | 246° |
| 2026-05-07 15:08 | 43.46443 | 6.08961 | 35934 ft | 388 kts | 246° |
| 2026-05-07 15:09 | 43.44371 | 6.02130 | 35961 ft | 386 kts | 246° |
| 2026-05-07 15:09 | 43.42301 | 5.95314 | 35967 ft | 386 kts | 246° |
| 2026-05-07 15:10 | 43.40219 | 5.88496 | 35971 ft | 386 kts | 246° |
| 2026-05-07 15:10 | 43.38130 | 5.81700 | 35973 ft | 386 kts | 246° |
| 2026-05-07 15:11 | 43.36040 | 5.74904 | 35981 ft | 386 kts | 246° |
| 2026-05-07 15:11 | 43.33949 | 5.68111 | 35973 ft | 386 kts | 246° |
| 2026-05-07 15:12 | 43.31857 | 5.61319 | 35986 ft | 386 kts | 246° |
| 2026-05-07 15:12 | 43.29761 | 5.54527 | 35979 ft | 386 kts | 246° |
| 2026-05-07 15:13 | 43.27671 | 5.47768 | 35982 ft | 384 kts | 245° |
| 2026-05-07 15:13 | 43.25572 | 5.41023 | 35981 ft | 384 kts | 245° |
| 2026-05-07 15:14 | 43.23474 | 5.34299 | 35980 ft | 383 kts | 245° |
| 2026-05-07 15:14 | 43.21371 | 5.27591 | 35983 ft | 383 kts | 245° |
| 2026-05-07 15:15 | 43.19268 | 5.20886 | 35988 ft | 383 kts | 245° |
| 2026-05-07 15:15 | 43.17184 | 5.14231 | 35980 ft | 383 kts | 245° |
| 2026-05-07 15:16 | 43.15080 | 5.07537 | 35989 ft | 383 kts | 245° |
| 2026-05-07 15:16 | 43.12969 | 5.00846 | 35978 ft | 383 kts | 245° |
| 2026-05-07 15:17 | 43.10854 | 4.94166 | 35993 ft | 381 kts | 245° |
| 2026-05-07 15:17 | 43.08753 | 4.87531 | 35976 ft | 379 kts | 245° |
| 2026-05-07 15:18 | 43.06639 | 4.80920 | 35985 ft | 379 kts | 242° |
| 2026-05-07 15:18 | 43.03533 | 4.75164 | 35984 ft | 379 kts | 224° |
| 2026-05-07 15:19 | 42.99579 | 4.70384 | 35991 ft | 379 kts | 223° |
| 2026-05-07 15:19 | 42.95625 | 4.65604 | 35982 ft | 380 kts | 223° |
| 2026-05-07 15:20 | 42.91695 | 4.60859 | 35979 ft | 379 kts | 223° |
| 2026-05-07 15:20 | 42.87748 | 4.56111 | 35993 ft | 378 kts | 223° |
| 2026-05-07 15:21 | 42.83797 | 4.51364 | 35982 ft | 378 kts | 223° |
| 2026-05-07 15:21 | 42.79841 | 4.46621 | 35988 ft | 378 kts | 223° |
| 2026-05-07 15:22 | 42.75887 | 4.41888 | 35991 ft | 379 kts | 223° |
| 2026-05-07 15:22 | 42.71932 | 4.37153 | 35986 ft | 379 kts | 223° |
| 2026-05-07 15:23 | 42.67979 | 4.32423 | 35979 ft | 379 kts | 223° |
| 2026-05-07 15:23 | 42.64018 | 4.27707 | 35988 ft | 379 kts | 223° |
| 2026-05-07 15:24 | 42.60053 | 4.22998 | 35983 ft | 379 kts | 223° |
| 2026-05-07 15:24 | 42.56084 | 4.18284 | 36001 ft | 379 kts | 223° |
| 2026-05-07 15:25 | 42.52114 | 4.13573 | 35987 ft | 379 kts | 222° |
| 2026-05-07 15:25 | 42.48149 | 4.08884 | 35804 ft | 379 kts | 222° |
| 2026-05-07 15:26 | 42.46164 | 4.06541 | 35175 ft | 377 kts | 222° |
| 2026-05-07 15:26 | 42.44202 | 4.04229 | 34678 ft | 371 kts | 222° |
| 2026-05-07 15:26 | 42.42298 | 4.01987 | 34247 ft | 364 kts | 222° |
| 2026-05-07 15:26 | 42.40407 | 3.99763 | 33798 ft | 357 kts | 222° |
| 2026-05-07 15:27 | 42.38546 | 3.97572 | 33229 ft | 353 kts | 223° |
| 2026-05-07 15:27 | 42.36699 | 3.95396 | 32601 ft | 351 kts | 223° |
| 2026-05-07 15:27 | 42.34862 | 3.93232 | 31965 ft | 350 kts | 223° |
| 2026-05-07 15:27 | 42.33028 | 3.91073 | 31338 ft | 349 kts | 223° |
| 2026-05-07 15:28 | 42.31200 | 3.88925 | 31019 ft | 348 kts | 223° |
| 2026-05-07 15:28 | 42.29377 | 3.86788 | 30544 ft | 346 kts | 223° |
| 2026-05-07 15:28 | 42.27562 | 3.84659 | 29983 ft | 345 kts | 223° |
| 2026-05-07 15:28 | 42.25751 | 3.82536 | 29335 ft | 344 kts | 223° |
| 2026-05-07 15:29 | 42.23947 | 3.80423 | 28706 ft | 343 kts | 223° |
| 2026-05-07 15:29 | 42.22139 | 3.78310 | 28032 ft | 344 kts | 222° |
| 2026-05-07 15:29 | 42.20326 | 3.76199 | 27416 ft | 345 kts | 222° |
| 2026-05-07 15:29 | 42.18511 | 3.74089 | 27044 ft | 345 kts | 222° |
| 2026-05-07 15:30 | 42.16941 | 3.72261 | 26963 ft | 347 kts | 222° |
| 2026-05-07 15:30 | 42.16073 | 3.71250 | 26942 ft | 348 kts | 222° |
| 2026-05-07 15:31 | 42.14243 | 3.69115 | 26985 ft | 349 kts | 222° |
| 2026-05-07 15:31 | 42.12410 | 3.66976 | 26980 ft | 348 kts | 222° |
| 2026-05-07 15:31 | 42.10586 | 3.64848 | 26983 ft | 347 kts | 222° |
| 2026-05-07 15:31 | 42.08930 | 3.62511 | 26787 ft | 343 kts | 232° |
| 2026-05-07 15:32 | 42.07691 | 3.59771 | 26267 ft | 343 kts | 244° |
| 2026-05-07 15:32 | 42.06733 | 3.56831 | 25715 ft | 343 kts | 244° |
| 2026-05-07 15:32 | 42.05773 | 3.53891 | 25161 ft | 343 kts | 244° |
| 2026-05-07 15:32 | 42.04806 | 3.50955 | 24632 ft | 343 kts | 244° |
| 2026-05-07 15:33 | 42.03847 | 3.48057 | 24147 ft | 343 kts | 244° |
| 2026-05-07 15:33 | 42.02869 | 3.45125 | 23986 ft | 346 kts | 244° |
| 2026-05-07 15:33 | 42.01884 | 3.42182 | 23980 ft | 347 kts | 244° |
| 2026-05-07 15:33 | 42.00889 | 3.39202 | 23984 ft | 348 kts | 244° |
| 2026-05-07 15:34 | 41.99898 | 3.36231 | 23924 ft | 346 kts | 244° |
| 2026-05-07 15:34 | 41.98917 | 3.33291 | 23454 ft | 345 kts | 245° |
| 2026-05-07 15:34 | 41.97937 | 3.30355 | 22886 ft | 344 kts | 245° |
| 2026-05-07 15:34 | 41.96961 | 3.27431 | 22358 ft | 342 kts | 245° |
| 2026-05-07 15:35 | 41.95986 | 3.24522 | 21858 ft | 340 kts | 244° |
| 2026-05-07 15:35 | 41.95028 | 3.21626 | 21365 ft | 339 kts | 248° |
| 2026-05-07 15:35 | 41.94364 | 3.18591 | 20889 ft | 338 kts | 255° |
| 2026-05-07 15:35 | 41.93836 | 3.15522 | 20432 ft | 337 kts | 255° |
| 2026-05-07 15:36 | 41.93308 | 3.12462 | 19981 ft | 335 kts | 255° |
| 2026-05-07 15:36 | 41.92890 | 3.10047 | 19630 ft | 334 kts | 255° |
| 2026-05-07 15:36 | 41.92725 | 3.09096 | 19482 ft | 334 kts | 255° |
| 2026-05-07 15:37 | 41.92198 | 3.06069 | 19036 ft | 333 kts | 255° |
| 2026-05-07 15:37 | 41.91671 | 3.03042 | 18597 ft | 332 kts | 255° |
| 2026-05-07 15:37 | 41.91143 | 3.00030 | 18155 ft | 331 kts | 255° |
| 2026-05-07 15:37 | 41.90615 | 2.97025 | 17683 ft | 330 kts | 255° |
| 2026-05-07 15:38 | 41.90090 | 2.94035 | 17245 ft | 328 kts | 255° |
| 2026-05-07 15:38 | 41.89565 | 2.91058 | 16830 ft | 327 kts | 255° |
| 2026-05-07 15:38 | 41.89049 | 2.88134 | 16407 ft | 325 kts | 255° |
| 2026-05-07 15:38 | 41.88522 | 2.85148 | 15992 ft | 323 kts | 255° |
| 2026-05-07 15:39 | 41.88011 | 2.82257 | 15618 ft | 321 kts | 255° |
| 2026-05-07 15:39 | 41.87497 | 2.79350 | 15203 ft | 320 kts | 255° |
| 2026-05-07 15:39 | 41.86981 | 2.76447 | 14819 ft | 319 kts | 255° |
| 2026-05-07 15:39 | 41.86467 | 2.73552 | 14393 ft | 319 kts | 255° |
| 2026-05-07 15:40 | 41.85954 | 2.70667 | 14037 ft | 316 kts | 255° |
| 2026-05-07 15:40 | 41.85443 | 2.67802 | 13660 ft | 315 kts | 255° |
| 2026-05-07 15:40 | 41.84933 | 2.64953 | 13233 ft | 313 kts | 256° |
| 2026-05-07 15:40 | 41.84426 | 2.62113 | 12793 ft | 313 kts | 256° |
| 2026-05-07 15:41 | 41.83931 | 2.59350 | 12376 ft | 312 kts | 256° |
| 2026-05-07 15:41 | 41.83423 | 2.56523 | 11976 ft | 311 kts | 256° |
| 2026-05-07 15:41 | 41.82916 | 2.53711 | 11576 ft | 309 kts | 256° |
| 2026-05-07 15:41 | 41.82413 | 2.50916 | 11189 ft | 307 kts | 256° |
| 2026-05-07 15:42 | 41.81912 | 2.48136 | 10759 ft | 307 kts | 256° |
| 2026-05-07 15:42 | 41.81412 | 2.45362 | 10349 ft | 306 kts | 256° |
| 2026-05-07 15:42 | 41.80913 | 2.42594 | 10017 ft | 304 kts | 256° |
| 2026-05-07 15:42 | 41.80424 | 2.39890 | 9958 ft | 292 kts | 256° |
| 2026-05-07 15:43 | 41.79947 | 2.37252 | 9975 ft | 290 kts | 256° |
| 2026-05-07 15:43 | 41.79471 | 2.34625 | 9973 ft | 290 kts | 256° |
| 2026-05-07 15:43 | 41.78994 | 2.32008 | 9977 ft | 290 kts | 256° |
| 2026-05-07 15:43 | 41.78514 | 2.29383 | 9972 ft | 290 kts | 256° |
| 2026-05-07 15:44 | 41.78035 | 2.26763 | 9966 ft | 290 kts | 256° |
| 2026-05-07 15:44 | 41.77421 | 2.24188 | 9974 ft | 290 kts | 245° |
| 2026-05-07 15:44 | 41.76351 | 2.21945 | 9977 ft | 291 kts | 229° |
| 2026-05-07 15:44 | 41.74852 | 2.20142 | 9968 ft | 291 kts | 213° |
| 2026-05-07 15:45 | 41.73019 | 2.18938 | 9977 ft | 290 kts | 197° |
| 2026-05-07 15:45 | 41.71100 | 2.18207 | 9976 ft | 291 kts | 195° |
| 2026-05-07 15:45 | 41.69151 | 2.17475 | 9978 ft | 291 kts | 195° |
| 2026-05-07 15:45 | 41.67208 | 2.16745 | 9843 ft | 289 kts | 195° |
| 2026-05-07 15:46 | 41.63505 | 2.15342 | 9051 ft | 286 kts | 195° |
| 2026-05-07 15:46 | 41.61596 | 2.14618 | 8662 ft | 285 kts | 195° |
| 2026-05-07 15:46 | 41.59688 | 2.13897 | 8263 ft | 283 kts | 195° |
| 2026-05-07 15:47 | 41.57801 | 2.13185 | 7871 ft | 281 kts | 195° |
| 2026-05-07 15:47 | 41.55922 | 2.12477 | 7767 ft | 281 kts | 195° |
| 2026-05-07 15:47 | 41.54038 | 2.11767 | 7773 ft | 282 kts | 195° |
| 2026-05-07 15:47 | 41.52170 | 2.10955 | 7692 ft | 281 kts | 203° |
| 2026-05-07 15:48 | 41.50493 | 2.09639 | 7298 ft | 280 kts | 214° |
| 2026-05-07 15:48 | 41.48900 | 2.08134 | 6891 ft | 280 kts | 214° |
| 2026-05-07 15:48 | 41.47316 | 2.06644 | 6494 ft | 278 kts | 214° |
| 2026-05-07 15:48 | 41.45734 | 2.05167 | 6072 ft | 278 kts | 213° |
| 2026-05-07 15:49 | 41.44154 | 2.03697 | 5660 ft | 276 kts | 214° |
| 2026-05-07 15:49 | 41.42585 | 2.02241 | 5273 ft | 274 kts | 214° |
| 2026-05-07 15:49 | 41.41032 | 2.00802 | 4883 ft | 271 kts | 213° |
| 2026-05-07 15:49 | 41.39488 | 1.99370 | 4486 ft | 269 kts | 214° |
| 2026-05-07 15:50 | 41.37960 | 1.97955 | 4376 ft | 268 kts | 213° |
| 2026-05-07 15:50 | 41.36425 | 1.96537 | 4377 ft | 268 kts | 212° |
| 2026-05-07 15:50 | 41.34893 | 1.95117 | 4384 ft | 269 kts | 213° |
| 2026-05-07 15:50 | 41.33355 | 1.93691 | 4380 ft | 269 kts | 214° |
| 2026-05-07 15:51 | 41.31881 | 1.92328 | 4388 ft | 271 kts | 214° |
| 2026-05-07 15:51 | 41.30338 | 1.90904 | 4377 ft | 265 kts | 213° |
| 2026-05-07 15:51 | 41.28877 | 1.89554 | 4378 ft | 247 kts | 213° |
| 2026-05-07 15:51 | 41.27962 | 1.88707 | 4372 ft | 236 kts | 212° |
| 2026-05-07 15:52 | 41.26234 | 1.87117 | 4371 ft | 220 kts | 212° |
| 2026-05-07 15:52 | 41.25402 | 1.86355 | 4375 ft | 218 kts | 212° |
| 2026-05-07 15:52 | 41.24173 | 1.85227 | 4373 ft | 210 kts | 212° |
| 2026-05-07 15:52 | 41.22987 | 1.84135 | 4272 ft | 205 kts | 211° |
| 2026-05-07 15:53 | 41.21814 | 1.83058 | 4202 ft | 205 kts | 212° |
| 2026-05-07 15:53 | 41.20641 | 1.81979 | 4125 ft | 205 kts | 212° |
| 2026-05-07 15:53 | 41.19466 | 1.80892 | 4049 ft | 206 kts | 212° |
| 2026-05-07 15:53 | 41.18289 | 1.79802 | 3974 ft | 206 kts | 213° |
| 2026-05-07 15:54 | 41.17114 | 1.78714 | 3900 ft | 206 kts | 211° |
| 2026-05-07 15:54 | 41.15938 | 1.77624 | 3823 ft | 206 kts | 211° |
| 2026-05-07 15:54 | 41.14763 | 1.76535 | 3749 ft | 206 kts | 213° |
| 2026-05-07 15:54 | 41.13562 | 1.75526 | 3665 ft | 203 kts | 197° |
| 2026-05-07 15:55 | 41.12203 | 1.75357 | 3596 ft | 196 kts | 164° |
| 2026-05-07 15:55 | 41.11023 | 1.76175 | 3528 ft | 192 kts | 131° |
| 2026-05-07 15:55 | 41.10424 | 1.77658 | 3473 ft | 187 kts | 98° |
| 2026-05-07 15:55 | 41.10639 | 1.79377 | 3416 ft | 191 kts | 62° |
| 2026-05-07 15:56 | 41.11604 | 1.80570 | 3329 ft | 195 kts | 31° |
| 2026-05-07 15:56 | 41.12801 | 1.81439 | 3239 ft | 197 kts | 30° |
| 2026-05-07 15:56 | 41.14005 | 1.82311 | 3165 ft | 198 kts | 32° |
| 2026-05-07 15:56 | 41.15203 | 1.83182 | 3076 ft | 196 kts | 32° |
| 2026-05-07 15:57 | 41.16400 | 1.84060 | 2998 ft | 197 kts | 31° |
| 2026-05-07 15:57 | 41.17601 | 1.84942 | 2967 ft | 198 kts | 32° |
| 2026-05-07 15:57 | 41.18795 | 1.85817 | 2977 ft | 199 kts | 31° |
| 2026-05-07 15:57 | 41.20016 | 1.86710 | 2975 ft | 198 kts | 31° |
| 2026-05-07 15:58 | 41.21223 | 1.87593 | 2974 ft | 198 kts | 31° |
| 2026-05-07 15:58 | 41.22429 | 1.88483 | 2969 ft | 198 kts | 33° |
| 2026-05-07 15:58 | 41.23419 | 1.89699 | 2814 ft | 194 kts | 57° |
| 2026-05-07 15:58 | 41.23999 | 1.91228 | 2605 ft | 183 kts | 68° |
| 2026-05-07 15:59 | 41.24513 | 1.92727 | 2380 ft | 174 kts | 67° |
| 2026-05-07 15:59 | 41.25004 | 1.94158 | 2154 ft | 166 kts | 67° |
| 2026-05-07 15:59 | 41.25475 | 1.95525 | 1955 ft | 156 kts | 68° |
| 2026-05-07 15:59 | 41.25911 | 1.96788 | 1732 ft | 145 kts | 69° |
| 2026-05-07 16:00 | 41.26275 | 1.97847 | 1553 ft | 137 kts | 68° |
| 2026-05-07 16:00 | 41.26675 | 1.99010 | 1368 ft | 132 kts | 68° |
| 2026-05-07 16:00 | 41.27056 | 2.00121 | 1192 ft | 134 kts | 67° |
| 2026-05-07 16:00 | 41.27439 | 2.01236 | 1024 ft | 131 kts | 68° |
| 2026-05-07 16:01 | 41.27817 | 2.02336 | 836 ft | 133 kts | 67° |
| 2026-05-07 16:01 | 41.28200 | 2.03452 | 661 ft | 134 kts | 68° |
| 2026-05-07 16:01 | 41.28581 | 2.04559 | 485 ft | 131 kts | 68° |
| 2026-05-07 16:01 | 41.28964 | 2.05674 | 311 ft | 130 kts | 67° |
| 2026-05-07 16:02 | 41.29338 | 2.06773 | 125 ft | 130 kts | 69° |
| 2026-05-07 16:02 | 41.29703 | 2.07852 | 18 ft | 120 kts | 66° |
| 2026-05-07 16:02 | 41.29981 | 2.08648 | 23 ft | 69 kts | 66° |
| 2026-05-07 16:02 | 41.30101 | 2.09007 | 19 ft | 25 kts | 72° |
| 2026-05-07 16:03 | 41.30132 | 2.09221 | 16 ft | 18 kts | 87° |
| 2026-05-07 16:03 | 41.30130 | 2.09333 | 15 ft | 9 kts | 94° |
| 2026-05-07 16:03 | 41.30107 | 2.09418 | 16 ft | 10 kts | 140° |
| 2026-05-07 16:03 | 41.30050 | 2.09397 | 18 ft | 9 kts | 239° |
| 2026-05-07 16:04 | 41.30027 | 2.09327 | 16 ft | 8 kts | 246° |
| 2026-05-07 16:04 | 41.30006 | 2.09267 | 18 ft | 7 kts | 246° |
| 2026-05-07 16:04 | 41.29988 | 2.09213 | 17 ft | 10 kts | 245° |
| 2026-05-07 16:04 | 41.29945 | 2.09092 | 19 ft | 15 kts | 245° |
| 2026-05-07 16:05 | 41.29905 | 2.08975 | 19 ft | 13 kts | 246° |
| 2026-05-07 16:05 | 41.29873 | 2.08879 | 21 ft | 11 kts | 246° |
| 2026-05-07 16:05 | 41.29842 | 2.08788 | 19 ft | 11 kts | 246° |
| 2026-05-07 16:05 | 41.29811 | 2.08695 | 18 ft | 11 kts | 246° |
| 2026-05-07 16:06 | 41.29778 | 2.08602 | 17 ft | 11 kts | 244° |
| 2026-05-07 16:06 | 41.29748 | 2.08518 | 19 ft | 10 kts | 244° |
| 2026-05-07 16:06 | 41.29721 | 2.08436 | 19 ft | 9 kts | 246° |
| 2026-05-07 16:06 | 41.29683 | 2.08323 | 17 ft | 15 kts | 245° |
| 2026-05-07 16:07 | 41.29624 | 2.08234 | 16 ft | 13 kts | 187° |
| 2026-05-07 16:07 | 41.29537 | 2.08275 | 17 ft | 14 kts | 155° |
| 2026-05-07 16:07 | 41.29452 | 2.08327 | 17 ft | 10 kts | 156° |
| 2026-05-07 16:07 | 41.29383 | 2.08343 | 19 ft | 10 kts | 205° |
| 2026-05-07 16:08 | 41.29351 | 2.08272 | 19 ft | 9 kts | 246° |
| 2026-05-07 16:08 | 41.29328 | 2.08202 | 20 ft | 8 kts | 245° |
| 2026-05-07 16:08 | 41.29306 | 2.08138 | 19 ft | 7 kts | 245° |
| 2026-05-07 16:08 | 41.29285 | 2.08078 | 21 ft | 8 kts | 245° |
| 2026-05-07 16:09 | 41.29262 | 2.08012 | 19 ft | 8 kts | 245° |
| 2026-05-07 16:09 | 41.29241 | 2.07952 | 20 ft | 7 kts | 245° |
| 2026-05-07 16:09 | 41.29211 | 2.07917 | 19 ft | 5 kts | 186° |
| 2026-05-07 16:09 | 41.29178 | 2.07928 | 20 ft | 4 kts | 158° |
| 2026-05-07 16:10 | 41.29156 | 2.07941 | 19 ft | 2 kts | 155° |
| 2026-05-07 16:10 | 41.29153 | 2.07943 | 19 ft | 0 kts | 155° |